createdAt,value
2023-12-13T00:00:34.247Z,5.40
2023-12-13T00:05:43.862Z,5.05
2023-12-13T00:05:50.750Z,5.53
2023-12-13T00:08:21.065Z,4.68
2023-12-13T00:10:48.815Z,6.82
2023-12-13T00:13:51.852Z,5.30
2023-12-13T00:16:20.509Z,4.65
2023-12-13T00:18:54.111Z,4.40
2023-12-13T00:21:37.585Z,5.05
2023-12-13T00:24:05.519Z,4.43
2023-12-13T00:26:32.692Z,5.00
2023-12-13T00:28:59.987Z,4.93
2023-12-13T00:31:30.554Z,5.40
2023-12-13T00:33:57.959Z,5.10
2023-12-13T00:36:25.358Z,7.18
2023-12-13T00:38:52.674Z,5.53
2023-12-13T00:41:19.900Z,5.00
2023-12-13T00:43:47.860Z,6.90
2023-12-13T00:46:20.972Z,4.35
2023-12-13T00:48:49.032Z,5.53
2023-12-13T00:51:20.594Z,3.72
2023-12-13T00:53:56.505Z,5.38
2023-12-13T00:56:23.863Z,4.35
2023-12-13T00:58:53.556Z,5.22
2023-12-13T01:01:20.885Z,6.35
2023-12-13T01:03:50.434Z,4.63
2023-12-13T01:07:20.272Z,3.92
2023-12-13T01:09:10.619Z,3.90
2023-12-13T01:11:40.646Z,5.43
2023-12-13T01:14:08.809Z,3.92
2023-12-13T01:16:36.116Z,5.18
2023-12-13T01:19:04.605Z,4.00
2023-12-13T01:21:31.863Z,3.20
2023-12-13T01:23:59.952Z,5.82
2023-12-13T01:26:27.128Z,6.32
2023-12-13T01:28:54.646Z,4.22
2023-12-13T01:31:24.590Z,4.45
2023-12-13T01:33:51.924Z,4.03
2023-12-13T01:36:21.822Z,5.07
2023-12-13T01:38:49.005Z,4.30
2023-12-13T01:41:17.024Z,4.20
2023-12-13T01:43:44.522Z,4.55
2023-12-13T01:46:12.314Z,4.55
2023-12-13T01:48:43.539Z,4.82
2023-12-13T01:51:10.783Z,4.57
2023-12-13T01:53:40.421Z,5.40
2023-12-13T01:56:11.745Z,4.88
2023-12-13T01:59:19.203Z,4.43
2023-12-13T02:01:46.882Z,3.67
2023-12-13T02:04:16.307Z,3.70
2023-12-13T02:06:43.907Z,3.55
2023-12-13T02:09:11.225Z,5.68
2023-12-13T02:11:41.444Z,3.88
2023-12-13T02:14:09.064Z,4.00
2023-12-13T02:16:36.301Z,3.75
2023-12-13T02:19:03.567Z,4.40
2023-12-13T02:21:31.630Z,3.40
2023-12-13T02:24:02.481Z,3.17
2023-12-13T02:26:32.177Z,3.70
2023-12-13T02:29:24.600Z,3.22
2023-12-13T02:31:52.017Z,2.88
2023-12-13T02:34:19.421Z,4.57
2023-12-13T02:36:49.565Z,4.43
2023-12-13T02:39:17.166Z,3.75
2023-12-13T02:41:44.602Z,3.55
2023-12-13T02:44:11.830Z,4.03
2023-12-13T02:46:40.274Z,3.95
2023-12-13T02:49:13.610Z,3.13
2023-12-13T02:51:40.912Z,4.50
2023-12-13T02:54:08.270Z,3.28
2023-12-13T02:56:35.486Z,5.55
2023-12-13T02:59:02.726Z,3.80
2023-12-13T03:01:30.481Z,3.60
2023-12-13T03:04:02.386Z,4.20
2023-12-13T03:06:30.621Z,4.20
2023-12-13T03:08:57.961Z,3.58
2023-12-13T03:11:25.272Z,3.80
2023-12-13T03:13:52.607Z,2.90
2023-12-13T03:16:22.498Z,3.33
2023-12-13T03:18:51.865Z,4.13
2023-12-13T03:21:19.206Z,3.00
2023-12-13T03:24:01.471Z,6.05
2023-12-13T03:26:28.712Z,4.40
2023-12-13T03:28:57.144Z,3.63
2023-12-13T03:31:24.549Z,3.80
2023-12-13T03:33:51.956Z,4.97
2023-12-13T03:36:20.760Z,3.50
2023-12-13T03:38:47.975Z,3.72
2023-12-13T03:41:24.942Z,3.22
2023-12-13T03:43:52.123Z,3.53
2023-12-13T03:46:21.782Z,2.97
2023-12-13T03:48:49.126Z,4.05
2023-12-13T03:51:16.326Z,3.50
2023-12-13T03:53:43.753Z,4.18
2023-12-13T03:56:11.603Z,3.90
2023-12-13T03:58:43.804Z,4.03
2023-12-13T04:01:12.135Z,3.00
2023-12-13T04:03:39.519Z,3.15
2023-12-13T04:06:07.013Z,3.33
2023-12-13T04:08:37.808Z,3.10
2023-12-13T04:11:05.091Z,3.38
2023-12-13T04:13:32.346Z,3.33
2023-12-13T04:15:59.587Z,3.42
2023-12-13T04:18:26.888Z,2.85
2023-12-13T04:20:54.321Z,3.45
2023-12-13T04:23:21.654Z,2.85
2023-12-13T04:25:49.137Z,3.55
2023-12-13T04:28:16.415Z,3.95
2023-12-13T04:30:43.700Z,2.97
2023-12-13T04:33:13.221Z,3.83
2023-12-13T04:35:40.487Z,2.83
2023-12-13T04:38:21.455Z,3.13
2023-12-13T04:40:57.545Z,3.40
2023-12-13T04:43:24.825Z,3.22
2023-12-13T04:45:52.534Z,4.75
2023-12-13T04:48:19.930Z,3.22
2023-12-13T04:50:50.851Z,3.67
2023-12-13T04:53:21.708Z,3.15
2023-12-13T04:58:32.405Z,3.30
2023-12-13T05:01:00.134Z,2.70
2023-12-13T05:03:30.476Z,3.38
2023-12-13T05:06:13.398Z,3.17
2023-12-13T05:08:42.735Z,2.50
2023-12-13T05:11:10.002Z,2.88
2023-12-13T05:13:37.251Z,2.70
2023-12-13T05:16:04.704Z,2.65
2023-12-13T05:18:31.957Z,2.85
2023-12-13T05:20:59.234Z,2.90
2023-12-13T05:23:30.245Z,2.55
2023-12-13T05:25:57.503Z,3.45
2023-12-13T05:28:24.906Z,2.55
2023-12-13T05:30:52.207Z,3.08
2023-12-13T05:33:19.635Z,2.95
2023-12-13T05:35:46.898Z,2.30
2023-12-13T05:38:14.168Z,2.92
2023-12-13T05:40:41.500Z,2.95
2023-12-13T05:43:08.738Z,2.38
2023-12-13T05:45:36.017Z,2.92
2023-12-13T05:48:03.410Z,2.50
2023-12-13T05:50:31.771Z,2.95
2023-12-13T05:53:16.567Z,3.80
2023-12-13T05:55:43.891Z,2.83
2023-12-13T05:58:11.374Z,2.85
2023-12-13T06:00:38.615Z,3.08
2023-12-13T06:03:17.816Z,2.45
2023-12-13T06:05:45.165Z,3.10
2023-12-13T06:08:12.697Z,3.03
2023-12-13T06:10:39.919Z,2.40
2023-12-13T06:13:07.117Z,3.10
2023-12-13T06:15:41.534Z,2.65
2023-12-13T06:18:09.007Z,2.67
2023-12-13T06:20:36.508Z,3.10
2023-12-13T06:23:03.729Z,2.47
2023-12-13T06:25:30.942Z,2.28
2023-12-13T06:27:58.896Z,2.03
2023-12-13T06:30:31.257Z,2.42
2023-12-13T06:32:58.640Z,2.28
2023-12-13T06:35:26.104Z,2.30
2023-12-13T06:37:53.606Z,1.90
2023-12-13T06:40:20.898Z,2.90
2023-12-13T06:45:29.699Z,2.85
2023-12-13T06:47:57.026Z,2.42
2023-12-13T06:50:25.609Z,2.33
2023-12-13T06:52:53.147Z,2.60
2023-12-13T06:55:21.922Z,2.53
2023-12-13T06:57:50.049Z,2.30
2023-12-13T07:00:20.813Z,2.40
2023-12-13T07:04:04.747Z,2.50
2023-12-13T07:05:36.110Z,3.13
2023-12-13T07:08:03.545Z,2.35
2023-12-13T07:10:30.877Z,3.65
2023-12-13T07:13:31.307Z,2.30
2023-12-13T07:15:58.654Z,3.03
2023-12-13T07:18:26.606Z,2.90
2023-12-13T07:20:54.356Z,3.30
2023-12-13T07:23:21.603Z,2.78
2023-12-13T07:25:49.162Z,2.05
2023-12-13T07:28:17.473Z,2.28
2023-12-13T07:30:52.463Z,2.63
2023-12-13T07:33:32.394Z,2.97
2023-12-13T07:36:03.306Z,2.55
2023-12-13T07:38:32.747Z,4.68
2023-12-13T07:41:02.979Z,5.38
2023-12-13T07:43:30.576Z,2.08
2023-12-13T07:54:45.230Z,2.45
2023-12-13T07:57:13.012Z,3.03
2023-12-13T08:02:46.560Z,3.33
2023-12-13T08:25:22.273Z,4.88
2023-12-13T08:28:04.844Z,3.22
2023-12-13T08:30:32.291Z,1.95
2023-12-13T08:40:25.377Z,8.60
2023-12-13T08:42:53.062Z,11.65
2023-12-13T08:45:22.573Z,11.23
2023-12-13T08:51:11.685Z,16.55
2023-12-13T08:53:51.722Z,12.82
2023-12-13T08:59:10.641Z,15.48
2023-12-13T09:01:41.375Z,17.90
2023-12-13T09:04:11.779Z,17.40
2023-12-13T09:07:25.468Z,11.35
2023-12-13T09:09:52.555Z,16.80
2023-12-13T09:12:33.464Z,13.65
2023-12-13T09:15:02.934Z,13.38
2023-12-13T09:24:14.159Z,8.95
2023-12-13T09:37:50.280Z,12.35
2023-12-13T10:43:44.628Z,4.38
2023-12-13T13:37:25.293Z,3.00
2023-12-13T14:45:38.701Z,2.22
2023-12-13T14:52:44.448Z,2.50
2023-12-13T14:55:31.195Z,3.35
2023-12-13T15:11:34.386Z,2.60
2023-12-13T15:14:12.262Z,2.03
2023-12-13T15:16:42.214Z,3.95
2023-12-13T15:19:11.609Z,2.42
2023-12-13T15:28:34.120Z,2.35
2023-12-13T15:31:05.169Z,2.22
2023-12-13T15:36:46.715Z,3.38
2023-12-13T15:45:03.057Z,3.08
2023-12-13T15:56:22.297Z,2.53
2023-12-13T15:58:54.329Z,3.10
2023-12-13T16:01:24.727Z,2.58
2023-12-13T16:03:52.384Z,1.67
2023-12-13T16:09:42.038Z,2.47
2023-12-13T16:12:15.120Z,1.75
2023-12-13T16:20:06.146Z,4.55
2023-12-13T16:22:41.976Z,1.92
2023-12-13T16:34:00.663Z,3.72
2023-12-13T16:36:54.323Z,2.05
2023-12-13T16:45:48.778Z,2.58
2023-12-13T17:19:29.726Z,2.10
2023-12-13T17:22:24.419Z,2.25
2023-12-13T17:25:01.990Z,2.10
2023-12-13T17:38:35.228Z,1.90
2023-12-13T17:40:35.067Z,2.83
2023-12-13T17:47:47.811Z,2.30
2023-12-13T18:18:49.958Z,3.83
2023-12-13T18:31:23.647Z,6.57
2023-12-13T18:37:38.165Z,4.72
2023-12-13T18:40:12.131Z,3.45
2023-12-13T18:42:43.472Z,3.88
2023-12-13T18:45:55.473Z,3.45
2023-12-13T18:48:32.296Z,5.43
2023-12-13T18:51:04.342Z,3.72
2023-12-13T18:53:36.002Z,2.65
2023-12-13T18:56:06.052Z,3.42
2023-12-13T18:58:35.520Z,4.38
2023-12-13T19:01:25.011Z,4.40
2023-12-13T19:04:02.569Z,3.63
2023-12-13T19:06:45.604Z,3.60
2023-12-13T19:09:16.340Z,4.68
2023-12-13T19:12:04.117Z,3.65
2023-12-13T19:14:50.078Z,3.85
2023-12-13T19:27:15.362Z,3.10
2023-12-13T19:29:49.010Z,3.75
2023-12-13T19:32:15.968Z,6.07
2023-12-13T19:38:56.950Z,3.40
2023-12-13T19:42:03.370Z,4.15
2023-12-13T19:45:01.092Z,3.28
2023-12-13T19:47:37.530Z,5.22
2023-12-13T19:56:12.477Z,4.63
2023-12-13T19:59:04.985Z,2.78
2023-12-13T20:01:44.663Z,3.25
2023-12-13T20:13:53.967Z,2.60
2023-12-13T20:32:03.541Z,2.95
2023-12-13T20:34:55.288Z,4.32
